• Join FlightAware (Why Join?)
  • Login
  • US Flag 
12:25PM EDT


 

Airport Tracker/Info


-or-


 

Live Flight TrackerFlight Track Log ✈ N318DN ✈ 12-Dec-2013 ✈ KSNA - KPAE

Flight Track Log - Related Links

Times and Time Zones

All times are in EST time to prevent confusion due to time zone crossing. See the N318DN flight status page for this flight to view local times or setup timezone preferences in your user account.

Time Position Orientation Groundspeed Altitude Reporting Facility
EST Latitude Longitude Course Direction KTS MPH feet Rate Location/Type
02:42PM 33.6450 -117.8908 North 183 211 1,100  Level Los Angeles Center
02:43PM 33.5956 -117.9006 189° South 180 207 3,500 1,500 Climbing Los Angeles Center
02:44PM 33.5450 -117.9361 210° Southwest 217 250 4,200 1,080 Climbing Los Angeles Center
02:45PM 33.5472 -118.0092 272° West 226 260 5,800 1,740 Climbing Los Angeles Center
02:46PM 33.5147 -118.0706 238° Southwest 221 254 7,900 1,680 Climbing Los Angeles Center
02:47PM 33.4753 -118.1286 231° Southwest 222 255 9,300 1,620 Climbing Los Angeles Center
02:48PM 33.8272 -118.4167 North  Level FlightAware Approximate
02:48PM 33.4447 -118.2153 247° West 232 267 11,300  Level Los Angeles Center
02:49PM 33.4203 -118.2881 248° West 234 269 12,900 1,500 Climbing Los Angeles Center
02:50PM 33.3961 -118.3639 249° West 239 275 14,500 1,380 Climbing Los Angeles Center
02:52PM 33.4075 -118.4342 281° West 247 284 15,800 1,440 Climbing Los Angeles Center
02:53PM 33.4731 -118.4436 353° North 240 276 17,500 1,380 Climbing Los Angeles Center
02:54PM 33.5411 -118.4467 358° North 242 278 18,700 1,200 Climbing Los Angeles Center
02:55PM 33.6239 -118.4383 North 248 285 20,100 1,200 Climbing Los Angeles Center
02:56PM 33.6964 -118.4378 360° North 255 293 21,300 1,140 Climbing Los Angeles Center
02:57PM 33.7703 -118.4361 North 259 298 22,500 1,140 Climbing Los Angeles Center
02:58PM 33.8450 -118.4369 359° North 262 302 23,700 1,140 Climbing Los Angeles Center
02:59PM 33.9178 -118.4342 North 261 300 24,900 960 Climbing Los Angeles Center
03:00PM 33.9917 -118.4294 North 264 304 25,700 840 Climbing Los Angeles Center
03:01PM 34.0681 -118.4428 352° North 274 315 26,700 960 Climbing Los Angeles Center
03:02PM 34.1369 -118.4772 338° Northwest 270 311 27,700 600 Climbing Los Angeles Center
03:03PM 34.2242 -118.5044 346° North 270 311 28,000 120 Climbing Los Angeles Center
03:04PM 34.3058 -118.5131 355° North 291 335 28,000 240 Level Los Angeles Center
03:05PM 34.4075 -118.5231 355° North 304 350 28,600 480 Climbing Los Angeles Center
03:06PM 34.4894 -118.5350 353° North 297 342 29,100 480 Climbing Los Angeles Center
03:07PM 34.5697 -118.5447 354° North 293 337 29,600 480 Climbing Los Angeles Center
03:08PM 34.6656 -118.5594 353° North 290 334 30,200 480 Climbing Los Angeles Center
03:09PM 34.7450 -118.5742 351° North 287 330 30,700 480 Climbing Los Angeles Center
03:10PM 34.8247 -118.5933 349° North 285 328 31,300 420 Climbing Los Angeles Center
03:11PM 34.9025 -118.6111 349° North 285 328 31,600 420 Climbing Los Angeles Center
03:12PM 34.9806 -118.6231 353° North 283 326 32,200 480 Climbing Los Angeles Center
03:13PM 35.0567 -118.6392 350° North 279 321 32,700 480 Climbing Los Angeles Center
03:15PM 35.1483 -118.6594 350° North 279 321 33,300 480 Climbing Los Angeles Center
03:16PM 35.2247 -118.6775 349° North 281 323 33,700 300 Climbing Los Angeles Center
03:17PM 35.3011 -118.6931 351° North 280 322 34,000 120 Climbing Los Angeles Center
03:18PM 35.3781 -118.7106 349° North 281 323 34,000 120 Level Los Angeles Center
03:19PM 35.4575 -118.7275 350° North 288 331 34,300 300 Climbing Los Angeles Center
03:20PM 35.5369 -118.7439 350° North 289 333 34,700 480 Climbing Los Angeles Center
03:21PM 35.6289 -118.7633 350° North 284 327 35,300 480 Climbing Los Angeles Center
03:22PM 35.7072 -118.7789 351° North 284 327 35,700 360 Climbing Los Angeles Center
03:24PM 35.8569 -118.8081 351° North 273 314 36,500 300 Climbing Oakland Center
03:25PM 35.9297 -118.8253 349° North 272 313 36,700 180 Climbing Los Angeles Center
03:26PM 36.0194 -118.8478 349° North 273 314 37,000 240 Climbing Los Angeles Center
03:27PM 36.0956 -118.8669 348° North 279 321 37,300 240 Climbing Los Angeles Center
03:28PM 36.1700 -118.8847 349° North 275 316 37,500 180 Climbing Los Angeles Center
03:29PM 36.2308 -118.8969 351° North 272 313 37,700 240 Climbing Oakland Center
03:30PM 36.3194 -118.9208 348° North 273 314 38,000 120 Climbing Oakland Center
03:31PM 36.3936 -118.9381 349° North 272 313 38,000  Level Oakland Center
03:32PM 36.4675 -118.9556 349° North 271 312 38,000  Level Oakland Center
03:33PM 36.5431 -118.9719 350° North 273 314 38,000  Level Oakland Center
03:34PM 36.6214 -118.9925 348° North 282 325 38,000  Level Oakland Center
03:35PM 36.6994 -119.0111 349° North 285 328 38,000  Level Oakland Center
03:36PM 36.7781 -119.0289 350° North 287 330 38,000  Level Oakland Center
03:37PM 36.8569 -119.0503 348° North 290 334 38,000  Level Oakland Center
03:38PM 36.9361 -119.0692 349° North 291 335 38,000  Level Oakland Center
03:39PM 37.0322 -119.0947 348° North 294 338 38,000  Level Oakland Center
03:40PM 37.1125 -119.1139 349° North 295 339 38,000  Level Oakland Center
03:41PM 37.1939 -119.1347 348° North 296 341 38,000  Level Oakland Center
03:42PM 37.2750 -119.1561 348° North 298 343 38,000  Level Oakland Center
03:43PM 37.3572 -119.1753 350° North 299 344 38,000  Level Oakland Center
03:44PM 37.4403 -119.1961 349° North 305 351 38,000  Level Oakland Center
03:45PM 37.5236 -119.2175 348° North 305 351 38,000  Level Oakland Center
03:46PM 37.6164 -119.2403 349° North 305 351 38,000  Level Oakland Center
03:47PM 37.7000 -119.2614 349° North 306 352 38,000  Level Oakland Center
03:48PM 37.7847 -119.2817 349° North 310 357 38,000  Level Oakland Center
03:49PM 37.8683 -119.3025 349° North 307 353 38,000  Level Oakland Center
03:50PM 37.9536 -119.3203 351° North 311 358 38,000  Level Oakland Center
03:51PM 38.0361 -119.3450 347° North 306 352 38,000  Level Oakland Center
03:52PM 38.1389 -119.3714 349° North 314 361 38,000  Level Oakland Center
03:53PM 38.2242 -119.3936 348° North 319 367 38,000  Level Oakland Center
03:54PM 38.3100 -119.4153 349° North 315 362 38,000  Level Oakland Center
03:55PM 38.3964 -119.4361 349° North 315 362 38,000  Level Oakland Center
03:57PM 38.4825 -119.4592 348° North 315 362 38,000  Level Oakland Center
03:58PM 38.5675 -119.4800 349° North 312 359 38,000  Level Oakland Center
03:59PM 38.6533 -119.5022 349° North 312 359 38,000  Level Oakland Center
04:00PM 38.7550 -119.5281 349° North 311 358 38,000  Level Oakland Center
04:01PM 38.8400 -119.5500 349° North 311 358 38,000  Level Oakland Center
04:02PM 38.9258 -119.5714 349° North 311 358 38,000  Level Oakland Center
04:03PM 39.0119 -119.5914 350° North 315 362 38,000  Level Oakland Center
04:04PM 39.0961 -119.6136 348° North 310 357 38,000  Level Oakland Center
04:05PM 39.1814 -119.6358 349° North 310 357 38,000  Level Oakland Center
04:06PM 39.2681 -119.6583 349° North 315 362 38,000  Level Oakland Center
04:07PM 39.3522 -119.6794 349° North 311 358 38,000  Level Oakland Center
04:08PM 39.4392 -119.7025 348° North 316 364 38,000  Level Oakland Center
04:09PM 39.5450 -119.7286 349° North 320 368 38,000  Level Oakland Center
04:10PM 39.6319 -119.7519 348° North 319 367 38,000  Level Oakland Center
04:11PM 39.7192 -119.7758 348° North 319 367 38,000  Level Oakland Center
04:12PM 39.8031 -119.8006 347° North 313 360 38,000  Level Oakland Center
04:13PM 39.8931 -119.8239 349° North 325 374 38,000  Level Oakland Center
04:14PM 39.9806 -119.8503 347° North 323 372 38,000  Level Oakland Center
04:15PM 40.0694 -119.8761 347° North 326 375 38,000  Level Oakland Center
04:16PM 40.1589 -119.8997 349° North 327 376 38,000  Level Oakland Center
04:17PM 40.2486 -119.9233 349° North 327 376 38,000  Level Oakland Center
04:18PM 40.3600 -119.9483 350° North 337 388 38,000  Level Oakland Center
04:19PM 40.4481 -119.9722 348° North 328 377 38,000  Level Oakland Center
04:20PM 40.5372 -119.9964 348° North 323 372 38,000  Level Oakland Center
04:21PM 40.6153 -120.0244 345° North 327 376 38,000  Level Oakland Center
04:22PM 40.7047 -120.0483 349° North 331 381 38,000  Level Oakland Center
04:23PM 40.8125 -120.0767 349° North 333 383 38,000  Level Oakland Center
04:24PM 40.9031 -120.0969 350° North 332 382 38,000  Level Oakland Center
04:25PM 40.9750 -120.1175 348° North 327 376 38,000  Level Seattle Center
04:26PM 41.0633 -120.1444 347° North 330 380 38,000  Level Seattle Center
04:27PM 41.1528 -120.1697 348° North 330 380 38,000  Level Seattle Center
04:28PM 41.2433 -120.1942 349° North 332 382 38,000  Level Seattle Center
04:29PM 41.3525 -120.2258 348° North 335 386 38,000  Level Seattle Center
04:30PM 41.4411 -120.2539 347° North 333 383 38,000  Level Seattle Center
04:31PM 41.5344 -120.2792 349° North 339 390 38,000  Level Seattle Center
04:32PM 41.6231 -120.3119 345° North 338 389 38,000  Level Seattle Center
04:33PM 41.7100 -120.3581 338° Northwest 335 386 38,000  Level Seattle Center
04:34PM 41.7944 -120.4036 338° Northwest 333 383 38,000  Level Seattle Center
04:35PM 41.8836 -120.4467 340° North 337 388 38,000  Level Seattle Center
04:36PM 41.9700 -120.4914 339° North 335 386 38,000  Level Seattle Center
04:37PM 42.0581 -120.5344 340° North 335 386 38,000  Level Seattle Center
04:38PM 42.1444 -120.5792 339° North 334 384 38,000  Level Seattle Center
04:39PM 42.2469 -120.6350 338° Northwest 332 382 38,000  Level Seattle Center
04:40PM 42.3322 -120.6806 338° Northwest 331 381 38,000  Level Seattle Center
04:41PM 42.4186 -120.7264 339° North 334 384 38,000  Level Seattle Center
04:42PM 42.5047 -120.7731 338° Northwest 335 386 38,000  Level Seattle Center
04:43PM 42.5922 -120.8194 339° North 337 388 38,000  Level Seattle Center
04:44PM 42.6803 -120.8669 338° Northwest 340 391 38,000  Level Seattle Center
04:45PM 42.7686 -120.9108 340° North 340 391 38,000  Level Seattle Center
04:46PM 42.8561 -120.9556 339° North 339 390 38,000  Level Seattle Center
04:47PM 42.9444 -121.0031 339° North 342 394 38,000  Level Seattle Center
04:48PM 43.0297 -121.0519 337° Northwest 336 387 38,000  Level Seattle Center
04:50PM 43.1339 -121.1117 337° Northwest 338 389 38,000  Level Seattle Center
04:51PM 43.2200 -121.1586 338° Northwest 335 386 38,000  Level Seattle Center
04:52PM 43.3069 -121.2047 339° North 335 386 38,000  Level Seattle Center
04:53PM 43.3925 -121.2511 338° Northwest 333 383 38,000  Level Seattle Center
04:54PM 43.4781 -121.2958 339° North 331 381 38,000  Level Seattle Center
04:55PM 43.5631 -121.3444 337° Northwest 332 382 38,000  Level Seattle Center
04:56PM 43.6467 -121.3914 338° Northwest 328 377 38,000  Level Seattle Center
04:57PM 43.7311 -121.4369 339° North 326 375 38,000  Level Seattle Center
04:58PM 43.8264 -121.4872 339° North 328 377 38,000  Level Seattle Center
04:59PM 43.9122 -121.5319 339° North 328 377 38,000  Level Seattle Center
05:00PM 43.9956 -121.5803 337° Northwest 326 375 38,000  Level Seattle Center
05:01PM 44.0797 -121.6289 337° Northwest 327 376 38,000  Level Seattle Center
05:02PM 44.1697 -121.6778 339° North 342 394 38,000  Level Seattle Center
05:03PM 44.2578 -121.7281 338° Northwest 343 395 38,000  Level Seattle Center
05:04PM 44.3464 -121.7811 337° Northwest 346 398 38,000  Level Seattle Center
05:05PM 44.4353 -121.8286 339° North 343 395 38,000  Level Seattle Center
05:06PM 44.5239 -121.8764 339° North 341 392 38,000  Level Seattle Center
05:07PM 44.6139 -121.9311 337° Northwest 341 392 38,000  Level Seattle Center
05:08PM 44.6994 -121.9792 338° Northwest 336 387 38,000  Level Seattle Center
05:09PM 44.7844 -122.0283 338° Northwest 334 384 38,000  Level Seattle Center
05:10PM 44.8731 -122.0811 337° Northwest 341 392 38,000  Level Seattle Center
05:11PM 44.9508 -122.1258 338° Northwest 327 376 38,000  Level Seattle Center
05:12PM 45.0511 -122.1839 338° Northwest 329 379 38,000  Level Seattle Center
05:13PM 45.1347 -122.2322 338° Northwest 329 379 38,000  Level Seattle Center
05:14PM 45.2206 -122.2778 340° North 330 380 38,000  Level Seattle Center
05:15PM 45.3039 -122.3269 337° Northwest 327 376 38,000  Level Seattle Center
05:16PM 45.3864 -122.3767 337° Northwest 325 374 38,000  Level Seattle Center
05:17PM 45.4672 -122.4217 339° North 318 366 38,000  Level Seattle Center
05:18PM 45.5497 -122.4706 337° Northwest 321 369 38,000  Level Seattle Center
05:19PM 45.6317 -122.5194 337° Northwest 322 371 38,000  Level Seattle Center
05:20PM 45.7106 -122.5644 338° Northwest 314 361 38,000  Level Seattle Center
05:21PM 45.7911 -122.6189 335° Northwest 317 365 38,000  Level Seattle Center
05:22PM 45.8817 -122.6333 354° North 328 377 38,000  Level Seattle Center
05:23PM 45.9742 -122.6486 353° North 333 383 38,000 -780 Level Seattle Center
05:24PM 46.0864 -122.6700 352° North 338 389 36,500 -2,040 Descending Seattle Center
05:25PM 46.1936 -122.6914 352° North 374 430 33,900 -2,460 Descending Seattle Center
05:26PM 46.3125 -122.7208 350° North 423 487 31,600 -2,280 Descending Seattle Center
05:27PM 46.4189 -122.7581 346° North 399 459 29,400 -2,280 Descending Seattle Center
05:28PM 46.5239 -122.7961 346° North 391 450 27,100 -2,220 Descending Seattle Center
05:29PM 46.6256 -122.8269 348° North 382 440 25,000 -2,220 Descending Seattle Center
05:30PM 46.7289 -122.8142 North 387 445 22,600 -2,580 Descending Seattle Center
05:30PM 46.7525 -122.7978 25° Northeast 390 449 22,100 -2,280 Descending Seattle Center
05:31PM 46.8175 -122.7567 23° Northeast 380 437 20,700 -1,860 Descending Seattle Center
05:31PM 46.8236 -122.7503 36° Northeast 382 440 20,500 -2,460 Descending Seattle Center
05:32PM 46.9136 -122.7244 11° North 350 403 18,200 -2,700 Descending Seattle Center
05:32PM 46.9258 -122.7175 21° North 364 419 17,800 -2,280 Descending Seattle Center
05:33PM 47.0083 -122.6864 14° North 354 407 15,900 -2,280 Descending Seattle Center
05:33PM 47.0303 -122.6744 20° North 359 413 15,500 -1,920 Descending Seattle Center
05:34PM 47.0989 -122.6408 18° North 345 397 14,000 -1,980 Descending Seattle Center
05:34PM 47.1197 -122.6300 19° North 342 394 13,500 -1,920 Descending Seattle Center
05:35PM 47.1942 -122.5958 17° North 327 376 12,100 -1,500 Descending Seattle Center
05:35PM 47.2061 -122.5892 21° North 325 374 12,000 -1,560 Descending Seattle Center
05:36PM 47.2883 -122.5422 21° North 322 371 10,300 -1,680 Descending Seattle Center
05:37PM 47.3397 -122.4511 50° Northeast 312 359 8,800 -1,500 Descending Seattle Center
05:37PM 47.3447 -122.4472 28° Northeast 306 352 8,800 -900 Level Seattle Center
05:38PM 47.4081 -122.4400 North 254 292 8,000 -840 Descending Seattle Center
05:38PM 47.4194 -122.4356 15° North 273 314 8,000 -1,440 Level Seattle Center
05:39PM 47.4842 -122.4342 North 246 283 6,400 -1,680 Descending Seattle Center
05:39PM 47.4894 -122.4331 North 252 290 6,300 -1,680 Descending Seattle Center
05:40PM 47.5467 -122.4261 North 245 282 4,900 -1,740 Descending Seattle Center
05:40PM 47.5578 -122.4242 North 246 283 4,600 -1,020 Descending Seattle Center
05:41PM 47.6100 -122.4306 355° North 243 280 4,000 -600 Descending Seattle Center
05:41PM 47.6242 -122.4308 359° North 240 276 4,000  Level Seattle Center
05:42PM 47.6733 -122.4353 357° North 229 264 4,000  Level Seattle Center
05:42PM 47.6922 -122.4375 355° North 229 264 4,000  Level Seattle Center
05:43PM 47.7383 -122.4456 353° North 237 273 4,000  Level Seattle Center
05:43PM 47.7578 -122.4464 358° North 235 270 4,000  Level Seattle Center
05:44PM 47.8061 -122.4508 356° North 228 262 4,000  Level Seattle Center
05:44PM 47.8108 -122.4517 353° North 231 266 4,000  Level Seattle Center
05:45PM 47.8631 -122.4558 357° North 220 253 4,000  Level Seattle Center
05:45PM 47.8847 -122.4561 360° North 222 255 4,000  Level Seattle Center
05:46PM 47.9256 -122.4575 359° North 228 262 4,000  Level Seattle Center
05:46PM 47.9475 -122.4592 357° North 226 260 4,000  Level Seattle Center
05:47PM 47.9936 -122.4628 357° North 209 241 4,000  Level Seattle Center
05:47PM 48.0064 -122.4628 360° North 215 247 4,000  Level Seattle Center
05:48PM 48.0522 -122.4667 357° North 217 250 4,000 -300 Level Seattle Center
05:48PM 48.0647 -122.4553 31° Northeast 216 249 3,700 -1,020 Descending Seattle Center
05:49PM 48.1044 -122.4178 32° Northeast 218 251 3,000 -720 Descending Seattle Center
05:49PM 48.1161 -122.4061 34° Northeast 220 253 3,000  Level Seattle Center
05:50PM 48.1303 -122.3606 65° Northeast 153 176 3,000  Level Seattle Center
05:50PM 48.1311 -122.3439 86° East 164 189 3,000  Level Seattle Center
05:51PM 48.1128 -122.3172 136° Southeast 107 123 3,000  Level Seattle Center
05:51PM 48.1069 -122.3111 145° Southeast 116 133 3,000  Level Seattle Center
05:52PM 48.0869 -122.2950 152° Southeast 102 117 3,000  Level Seattle Center
05:52PM 48.0839 -122.2908 138° Southeast 92 106 3,000  Level Seattle Center
05:53PM 48.0611 -122.2894 178° South 104 120 3,000  Level Seattle Center
05:53PM 48.0556 -122.2892 178° South 101 116 3,000 -120 Level Seattle Center
05:54PM 48.0350 -122.2908 183° South 70 81 2,900 -120 Descending Seattle Center
05:54PM 48.0342 -122.2886 119° Southeast 76 87 2,900 -360 Level Seattle Center
05:55PM 48.0131 -122.2881 179° South 76 87 2,500 -480 Descending Seattle Center
05:56PM 47.9917 -122.2881 180° South 75 86 2,000 -480 Descending Seattle Center
05:57PM 47.9722 -122.2894 183° South 77 89 1,600 -420 Descending Seattle Center
05:57PM 47.9706 -122.2861 127° Southeast 77 89 1,600 -540 Level Seattle Center
05:58PM 47.9481 -122.2897 186° South 86 99 1,100 -540 Descending Seattle Center
05:58PM 47.9472 -122.2867 112° Southeast 79 91 1,100 -300 Level Seattle Center
05:59PM 47.9178 -122.2869 180° South 84 97 800 -300 Descending Seattle Center